createdAt,value
2023-01-10T00:03:41.114Z,101145.87
2023-01-10T00:08:46.188Z,101144.78
2023-01-10T00:13:49.903Z,101160.16
2023-01-10T00:18:53.701Z,101163.94
2023-01-10T00:24:00.255Z,101177.28
2023-01-10T00:29:04.048Z,101188.00
2023-01-10T00:34:07.974Z,101202.69
2023-01-10T00:39:14.034Z,101198.91
2023-01-10T00:44:17.799Z,101200.03
2023-01-10T00:49:21.778Z,101210.94
2023-01-10T00:54:27.258Z,101207.16
2023-01-10T00:59:31.317Z,101224.75
2023-01-10T01:04:35.396Z,101230.88
2023-01-10T01:10:00.481Z,101230.22
2023-01-10T01:15:04.357Z,101229.13
2023-01-10T01:20:09.994Z,101243.03
2023-01-10T01:25:15.448Z,101262.31
2023-01-10T01:30:19.377Z,101260.50
2023-01-10T01:35:23.310Z,101283.38
2023-01-10T01:40:28.472Z,101282.50
2023-01-10T01:45:35.904Z,101282.91
2023-01-10T01:50:47.894Z,101294.50
2023-01-10T01:55:57.011Z,101286.81
2023-01-10T02:01:01.202Z,101296.28
2023-01-10T02:06:05.684Z,101314.31
2023-01-10T02:11:11.793Z,101306.31
2023-01-10T02:16:16.583Z,101311.22
2023-01-10T02:21:42.994Z,101314.78
2023-01-10T02:27:24.437Z,101323.38
2023-01-10T02:32:45.735Z,101317.22
2023-01-10T02:38:00.980Z,101313.97
2023-01-10T02:43:09.876Z,101325.56
2023-01-10T02:48:15.025Z,101323.00
2023-01-10T02:53:24.366Z,101330.34
2023-01-10T02:58:41.578Z,101349.72
2023-01-10T03:03:51.151Z,101347.81
2023-01-10T03:09:00.451Z,101360.09
2023-01-10T03:14:05.232Z,101371.59
2023-01-10T03:19:13.816Z,101366.91
2023-01-10T03:24:20.315Z,101363.13
2023-01-10T03:29:30.399Z,101377.72
2023-01-10T03:34:36.499Z,101373.84
2023-01-10T03:39:49.263Z,101385.97
2023-01-10T03:45:01.038Z,101394.34
2023-01-10T03:50:12.113Z,101389.37
2023-01-10T03:55:21.161Z,101394.59
2023-01-10T04:00:26.105Z,101401.28
2023-01-10T04:05:31.262Z,101417.44
2023-01-10T04:10:35.025Z,101428.44
2023-01-10T04:15:38.781Z,101440.72
2023-01-10T04:20:43.940Z,101447.50
2023-01-10T04:25:48.308Z,101444.03
2023-01-10T04:30:52.061Z,101443.13
2023-01-10T04:35:57.205Z,101441.59
2023-01-10T04:41:00.953Z,101444.47
2023-01-10T04:46:04.973Z,101484.31
2023-01-10T04:51:10.101Z,101462.81
2023-01-10T04:56:18.278Z,101445.62
2023-01-10T05:01:23.166Z,101460.25
2023-01-10T05:06:28.177Z,101472.28
2023-01-10T05:11:31.924Z,101490.56
2023-01-10T05:16:36.423Z,101503.50
2023-01-10T05:21:41.588Z,101510.47
2023-01-10T05:26:45.331Z,101509.34
2023-01-10T05:31:51.881Z,101499.44
2023-01-10T05:36:57.017Z,101500.22
2023-01-10T05:42:00.820Z,101512.72
2023-01-10T05:47:04.649Z,101515.16
2023-01-10T05:52:09.739Z,101530.66
2023-01-10T05:57:13.622Z,101536.50
2023-01-10T06:02:17.554Z,101544.44
2023-01-10T06:07:22.689Z,101551.31
2023-01-10T06:12:26.651Z,101548.66
2023-01-10T06:17:30.621Z,101553.44
2023-01-10T06:22:35.700Z,101558.47
2023-01-10T06:27:41.170Z,101560.38
2023-01-10T06:32:44.953Z,101550.56
2023-01-10T06:37:50.051Z,101551.34
2023-01-10T06:42:53.791Z,101544.97
2023-01-10T06:47:57.675Z,101565.59
2023-01-10T06:53:04.591Z,101566.34
2023-01-10T06:58:08.487Z,101580.94
2023-01-10T07:03:12.275Z,101586.19
2023-01-10T07:08:17.728Z,101596.13
2023-01-10T07:13:21.472Z,101602.94
2023-01-10T07:18:25.259Z,101606.53
2023-01-10T07:23:31.203Z,101617.88
2023-01-10T07:28:35.357Z,101632.59
2023-01-10T07:33:39.086Z,101642.06
2023-01-10T07:38:44.210Z,101658.22
2023-01-10T07:43:48.792Z,101670.13
2023-01-10T07:48:52.629Z,101680.91
2023-01-10T07:53:57.759Z,101672.59
2023-01-10T07:59:02.213Z,101656.03
2023-01-10T08:04:06.460Z,101664.63
2023-01-10T08:09:11.606Z,101666.44
2023-01-10T08:14:15.550Z,101665.69
2023-01-10T08:19:19.301Z,101666.75
2023-01-10T08:24:24.507Z,101681.47
2023-01-10T08:29:28.538Z,101666.81
2023-01-10T08:34:32.286Z,101673.38
2023-01-10T08:39:39.250Z,101668.13
2023-01-10T08:44:42.971Z,101667.09
2023-01-10T08:49:47.181Z,101669.28
2023-01-10T08:54:52.475Z,101657.59
2023-01-10T08:59:56.309Z,101664.00
2023-01-10T09:05:00.164Z,101664.59
2023-01-10T09:10:06.042Z,101664.53
2023-01-10T09:15:10.632Z,101651.56
2023-01-10T09:20:14.389Z,101650.66
2023-01-10T09:25:19.944Z,101647.97
2023-01-10T09:30:23.980Z,101656.16
2023-01-10T09:35:29.005Z,101645.56
2023-01-10T09:40:52.275Z,101637.59
2023-01-10T09:46:04.210Z,101637.31
2023-01-10T09:51:23.795Z,101633.97
2023-01-10T09:56:30.124Z,101627.84
2023-01-10T10:01:37.158Z,101633.69
2023-01-10T10:06:40.977Z,101628.81
2023-01-10T10:12:03.445Z,101618.69
2023-01-10T10:17:30.802Z,101621.47
2023-01-10T10:22:47.818Z,101617.69
2023-01-10T10:28:10.570Z,101612.16
2023-01-10T10:33:36.889Z,101596.72
2023-01-10T10:38:44.261Z,101595.75
2023-01-10T10:43:50.137Z,101594.25
2023-01-10T10:48:58.730Z,101572.50
2023-01-10T10:54:02.859Z,101567.88
2023-01-10T10:59:08.235Z,101557.47
2023-01-10T11:04:15.185Z,101554.19
2023-01-10T11:09:23.847Z,101540.78
2023-01-10T11:14:47.127Z,101531.09
2023-01-10T11:19:59.223Z,101521.81
2023-01-10T11:25:04.276Z,101520.41
2023-01-10T11:30:18.272Z,101518.25
2023-01-10T11:35:26.804Z,101507.91
2023-01-10T11:40:31.620Z,101524.75
2023-01-10T11:45:38.128Z,101503.31
2023-01-10T11:50:50.273Z,101506.22
2023-01-10T11:55:54.134Z,101503.00
2023-01-10T12:00:59.619Z,101485.06
2023-01-10T12:06:05.548Z,101485.16
2023-01-10T12:11:27.260Z,101480.47
2023-01-10T12:16:35.450Z,101463.72
2023-01-10T12:21:42.333Z,101448.53
2023-01-10T12:26:47.585Z,101441.81
2023-01-10T12:31:55.061Z,101438.78
2023-01-10T12:37:07.545Z,101418.56
2023-01-10T12:42:36.559Z,101417.22
2023-01-10T12:48:00.257Z,101410.63
2023-01-10T12:53:09.047Z,101407.59
2023-01-10T12:58:21.785Z,101409.59
2023-01-10T13:03:33.115Z,101384.78
2023-01-10T13:08:42.518Z,101381.53
2023-01-10T13:13:53.746Z,101356.66
2023-01-10T13:19:06.388Z,101356.34
2023-01-10T13:24:22.281Z,101340.69
2023-01-10T13:29:28.968Z,101336.22
2023-01-10T13:34:36.818Z,101339.59
2023-01-10T13:39:45.666Z,101330.56
2023-01-10T13:45:18.038Z,101325.44
2023-01-10T13:51:05.063Z,101324.00
2023-01-10T13:56:33.874Z,101318.47
2023-01-10T14:02:09.062Z,101306.50
2023-01-10T14:07:23.944Z,101302.53
2023-01-10T14:12:34.085Z,101285.44
2023-01-10T14:17:38.894Z,101273.97
2023-01-10T14:22:58.626Z,101276.34
2023-01-10T14:28:03.244Z,101246.66
2023-01-10T14:33:14.314Z,101229.25
2023-01-10T14:38:23.979Z,101212.75
2023-01-10T14:43:34.128Z,101197.72
2023-01-10T14:48:42.590Z,101198.53
2023-01-10T14:53:48.297Z,101190.94
2023-01-10T14:58:52.075Z,101197.34
2023-01-10T15:03:57.008Z,101191.00
2023-01-10T15:09:03.712Z,101180.50
2023-01-10T15:14:10.852Z,101175.84
2023-01-10T15:19:18.879Z,101170.41
2023-01-10T15:24:42.820Z,101168.53
2023-01-10T15:29:47.109Z,101157.38
2023-01-10T15:34:52.930Z,101140.47
2023-01-10T15:39:58.617Z,101154.75
2023-01-10T15:45:18.811Z,101123.19
2023-01-10T15:50:27.047Z,101103.25
2023-01-10T15:55:39.818Z,101095.34
2023-01-10T16:00:46.671Z,101076.28
2023-01-10T16:05:54.720Z,101070.06
2023-01-10T16:11:02.226Z,101086.44
2023-01-10T16:16:16.475Z,101092.25
2023-01-10T16:21:21.901Z,101076.75
2023-01-10T16:26:27.042Z,101080.13
2023-01-10T16:31:30.843Z,101079.84
2023-01-10T16:36:34.643Z,101062.44
2023-01-10T16:41:57.324Z,101072.81
2023-01-10T16:47:01.975Z,101062.88
2023-01-10T16:52:06.899Z,101047.50
2023-01-10T16:57:13.023Z,101034.00
2023-01-10T17:02:19.629Z,101028.06
2023-01-10T17:07:23.424Z,101028.47
2023-01-10T17:12:32.959Z,101035.59
2023-01-10T17:17:36.721Z,101033.25
2023-01-10T17:22:40.601Z,101022.59
2023-01-10T17:27:45.982Z,101022.97
2023-01-10T17:32:49.772Z,101001.19
2023-01-10T17:37:53.593Z,100993.91
2023-01-10T17:42:58.683Z,100988.25
2023-01-10T17:48:02.635Z,100999.81
2023-01-10T17:53:06.748Z,100987.31
2023-01-10T17:58:11.970Z,100964.69
2023-01-10T18:03:15.892Z,100951.94
2023-01-10T18:08:19.892Z,100950.59
2023-01-10T18:13:25.009Z,100946.50
2023-01-10T18:18:29.360Z,100921.94
2023-01-10T18:23:33.831Z,100921.41
2023-01-10T18:28:42.399Z,100906.38
2023-01-10T18:33:47.339Z,100908.22
2023-01-10T18:38:52.573Z,100907.63
2023-01-10T18:43:57.726Z,100895.94
2023-01-10T18:49:01.493Z,100882.34
2023-01-10T18:54:06.936Z,100878.25
2023-01-10T18:59:12.085Z,100877.66
2023-01-10T19:04:15.982Z,100877.13
2023-01-10T19:09:20.111Z,100873.78
2023-01-10T19:14:25.322Z,100873.34
2023-01-10T19:19:29.297Z,100865.97
2023-01-10T19:24:37.670Z,100872.47
2023-01-10T19:29:46.164Z,100872.03
2023-01-10T19:34:50.170Z,100852.81
2023-01-10T19:39:53.991Z,100840.13
2023-01-10T19:44:59.268Z,100843.06
2023-01-10T19:50:03.425Z,100829.38
2023-01-10T19:55:08.061Z,100825.50
2023-01-10T20:00:14.434Z,100828.34
2023-01-10T20:05:18.265Z,100799.37
2023-01-10T20:10:22.118Z,100808.50
2023-01-10T20:15:28.234Z,100808.59
2023-01-10T20:20:32.407Z,100803.00
2023-01-10T20:25:36.362Z,100799.97
2023-01-10T20:30:41.838Z,100795.06
2023-01-10T20:35:45.542Z,100787.41
2023-01-10T20:40:49.342Z,100788.34
2023-01-10T20:45:55.048Z,100778.91
2023-01-10T20:50:58.933Z,100782.13
2023-01-10T20:56:03.976Z,100775.13
2023-01-10T21:01:10.600Z,100777.78
2023-01-10T21:06:15.468Z,100776.09
2023-01-10T21:11:20.981Z,100764.09
2023-01-10T21:16:26.556Z,100770.22
2023-01-10T21:21:30.377Z,100772.91
2023-01-10T21:26:34.134Z,100759.56
2023-01-10T21:31:39.287Z,100742.81
2023-01-10T21:36:43.157Z,100734.00
2023-01-10T21:42:04.493Z,100744.59
2023-01-10T21:47:09.680Z,100752.66
2023-01-10T21:52:13.553Z,100738.56
2023-01-10T21:57:21.812Z,100735.66
2023-01-10T22:02:29.710Z,100718.59
2023-01-10T22:07:33.588Z,100725.84
2023-01-10T22:12:37.661Z,100713.19
2023-01-10T22:17:42.795Z,100711.72
2023-01-10T22:22:46.563Z,100713.72
2023-01-10T22:27:50.325Z,100701.72
2023-01-10T22:32:57.853Z,100681.44
2023-01-10T22:38:01.590Z,100692.62
2023-01-10T22:43:05.352Z,100673.34
2023-01-10T22:48:11.093Z,100693.38
2023-01-10T22:53:15.009Z,100679.69
2023-01-10T22:58:18.757Z,100676.44
2023-01-10T23:03:24.534Z,100669.66
2023-01-10T23:08:28.456Z,100674.19
2023-01-10T23:13:32.274Z,100663.50
2023-01-10T23:18:37.370Z,100646.97
2023-01-10T23:23:41.144Z,100666.25
2023-01-10T23:28:47.276Z,100643.25
2023-01-10T23:33:52.491Z,100638.97
2023-01-10T23:38:56.265Z,100630.69
2023-01-10T23:44:00.003Z,100640.66
2023-01-10T23:49:05.159Z,100635.00
2023-01-10T23:54:09.032Z,100617.16
2023-01-10T23:59:12.752Z,100601.88
